SBCY/CGB METAR and TAF weather

Enter ICAO airport designator
Station Type Date Time Source
SBCY METAR 2020/09/19 03:00 UTC NOAA

SBCY 190300Z 02002KT 4000 FU NSC 30/14 Q1021


Station Type Date Time Source
SBCY Decoded METAR 2020/09/19 03:00 UTC NOAA

Cuiaba Aeroporto , Brazil (SBCY) 15-39S 056-06W 182M
Sep 18, 2020 - 11:00 PM EDT / 2020.09.19 0300 UTC
Wind: from the NNE (020 degrees) at 2 MPH (2 KT):0
Visibility: 2 mile(s):0
Weather: smoke
Temperature: 86 F (30 C)
Dew Point: 57 F (14 C)
Relative Humidity: 37%
Pressure (altimeter): 30.15 in. Hg (1021 hPa)
ob: SBCY 190300Z 02002KT 4000 FU NSC 30/14 Q1021
cycle: 3

Station Type Date Time Source
SBCY TAF 2020/09/19 00:00 UTC NOAA

TAF SBCY 182130Z 1900/1924 30005KT 4000 FU NSC TN26/1909Z TX40/1918Z
BECMG 1900/1903 23004KT 7000 NSW
BECMG 1904/1906 4000 FU
BECMG 1908/1910 33004KT 2000 FU
BECMG 1912/1914 30005KT 4000 FU SCT030
BECMG 1921/1923 7000 NSW NSC
RMK PHC

Example: see airport list